createdAt,value
2022-11-04T00:02:55.226Z,76.57
2022-11-04T00:06:03.226Z,76.43
2022-11-04T00:09:11.056Z,76.58
2022-11-04T00:12:26.359Z,76.59
2022-11-04T00:15:50.135Z,76.58
2022-11-04T00:18:56.247Z,76.66
2022-11-04T00:22:19.975Z,76.61
2022-11-04T00:25:44.068Z,76.72
2022-11-04T00:28:53.192Z,76.79
2022-11-04T00:32:17.275Z,76.65
2022-11-04T00:35:24.259Z,76.56
2022-11-04T00:38:30.393Z,76.73
2022-11-04T00:41:36.401Z,76.81
2022-11-04T00:44:42.485Z,76.82
2022-11-04T00:47:48.738Z,76.89
2022-11-04T00:50:54.753Z,77.06
2022-11-04T00:54:01.096Z,77.06
2022-11-04T00:57:05.571Z,76.94
2022-11-04T01:00:14.239Z,77.19
2022-11-04T01:03:20.347Z,77.06
2022-11-04T01:06:27.886Z,77.27
2022-11-04T01:09:34.233Z,77.09
2022-11-04T01:12:38.642Z,77.19
2022-11-04T01:15:44.806Z,77.21
2022-11-04T01:18:51.059Z,77.04
2022-11-04T01:21:55.504Z,77.02
2022-11-04T01:25:01.606Z,77.13
2022-11-04T01:28:07.921Z,77.40
2022-11-04T01:31:16.182Z,77.34
2022-11-04T01:34:22.259Z,77.28
2022-11-04T01:37:28.276Z,77.21
2022-11-04T01:40:39.690Z,77.27
2022-11-04T01:43:52.974Z,77.38
2022-11-04T01:46:59.964Z,77.48
2022-11-04T01:50:09.835Z,77.33
2022-11-04T01:53:20.268Z,77.46
2022-11-04T01:56:27.567Z,77.43
2022-11-04T01:59:37.854Z,77.54
2022-11-04T02:02:56.076Z,77.67
2022-11-04T02:06:03.783Z,77.65
2022-11-04T02:12:38.519Z,77.84
2022-11-04T02:15:54.110Z,77.81
2022-11-04T02:19:11.770Z,77.94
2022-11-04T02:22:38.187Z,77.84
2022-11-04T02:26:18.975Z,77.88
2022-11-04T02:29:47.654Z,77.90
2022-11-04T02:33:20.462Z,77.90
2022-11-04T02:36:35.298Z,78.00
2022-11-04T02:39:50.989Z,78.05
2022-11-04T02:43:02.698Z,78.09
2022-11-04T02:46:17.465Z,78.03
2022-11-04T02:49:29.841Z,78.15
2022-11-04T02:52:48.699Z,78.08
2022-11-04T02:55:59.922Z,78.09
2022-11-04T02:59:11.101Z,78.28
2022-11-04T03:02:21.448Z,78.09
2022-11-04T03:05:32.519Z,78.24
2022-11-04T03:08:41.584Z,78.34
2022-11-04T03:11:52.799Z,78.50
2022-11-04T03:15:05.167Z,78.15
2022-11-04T03:18:19.725Z,78.13
2022-11-04T03:21:29.425Z,78.41
2022-11-04T03:24:35.820Z,78.50
2022-11-04T03:27:45.772Z,78.54
2022-11-04T03:30:54.349Z,78.55
2022-11-04T03:34:00.655Z,78.35
2022-11-04T03:37:05.292Z,78.40
2022-11-04T03:40:13.872Z,78.50
2022-11-04T03:43:23.907Z,78.63
2022-11-04T03:46:30.117Z,78.64
2022-11-04T03:49:36.390Z,78.58
2022-11-04T03:52:41.241Z,78.43
2022-11-04T03:56:00.806Z,78.48
2022-11-04T03:59:19.360Z,78.58
2022-11-04T04:02:35.356Z,78.48
2022-11-04T04:05:46.746Z,78.45
2022-11-04T04:08:57.179Z,78.50
2022-11-04T04:12:10.332Z,78.51
2022-11-04T04:15:23.990Z,78.57
2022-11-04T04:18:37.305Z,78.60
2022-11-04T04:21:48.486Z,78.45
2022-11-04T04:25:18.306Z,78.68
2022-11-04T04:28:25.577Z,78.66
2022-11-04T04:31:57.746Z,78.54
2022-11-04T04:35:21.647Z,78.67
2022-11-04T04:38:47.061Z,78.71
2022-11-04T04:42:12.579Z,78.77
2022-11-04T04:45:25.505Z,78.74
2022-11-04T04:48:31.751Z,78.72
2022-11-04T04:51:40.652Z,78.87
2022-11-04T04:54:47.584Z,78.74
2022-11-04T04:57:53.852Z,78.64
2022-11-04T05:00:58.416Z,78.44
2022-11-04T05:04:04.612Z,78.40
2022-11-04T05:07:10.650Z,78.36
2022-11-04T05:10:18.031Z,78.24
2022-11-04T05:13:30.423Z,78.29
2022-11-04T05:16:40.547Z,78.37
2022-11-04T05:19:47.230Z,78.14
2022-11-04T05:22:51.887Z,78.07
2022-11-04T05:26:01.160Z,77.88
2022-11-04T05:29:07.139Z,77.94
2022-11-04T05:32:13.325Z,77.83
2022-11-04T05:35:19.898Z,77.78
2022-11-04T05:38:26.250Z,77.73
2022-11-04T05:41:32.473Z,77.69
2022-11-04T05:44:36.974Z,77.54
2022-11-04T05:47:43.082Z,77.58
2022-11-04T05:50:49.249Z,77.45
2022-11-04T05:53:55.936Z,77.43
2022-11-04T05:57:01.976Z,77.38
2022-11-04T06:00:10.120Z,77.27
2022-11-04T06:03:16.575Z,77.19
2022-11-04T06:06:24.485Z,77.13
2022-11-04T06:09:40.191Z,76.85
2022-11-04T06:12:46.703Z,76.95
2022-11-04T06:15:52.770Z,76.88
2022-11-04T06:19:01.716Z,76.83
2022-11-04T06:22:13.038Z,76.84
2022-11-04T06:25:19.256Z,76.70
2022-11-04T06:28:23.826Z,76.60
2022-11-04T06:31:29.899Z,76.67
2022-11-04T06:34:36.006Z,76.77
2022-11-04T06:37:42.086Z,76.60
2022-11-04T06:40:48.153Z,76.67
2022-11-04T06:43:54.283Z,76.57
2022-11-04T06:47:00.548Z,76.41
2022-11-04T06:50:05.339Z,76.35
2022-11-04T06:53:11.711Z,76.22
2022-11-04T06:56:17.987Z,76.19
2022-11-04T06:59:24.117Z,76.11
2022-11-04T07:02:30.514Z,76.12
2022-11-04T07:05:37.703Z,76.18
2022-11-04T07:08:43.825Z,76.09
2022-11-04T07:11:50.735Z,75.85
2022-11-04T07:14:56.926Z,75.79
2022-11-04T07:18:01.732Z,75.82
2022-11-04T07:21:10.217Z,75.77
2022-11-04T07:24:16.631Z,75.55
2022-11-04T07:27:22.783Z,75.75
2022-11-04T07:30:28.971Z,75.67
2022-11-04T07:33:35.998Z,75.60
2022-11-04T07:36:42.021Z,75.58
2022-11-04T07:39:48.114Z,75.54
2022-11-04T07:42:54.217Z,75.53
2022-11-04T07:46:05.437Z,75.47
2022-11-04T07:49:11.528Z,75.36
2022-11-04T07:52:17.694Z,75.27
2022-11-04T07:55:22.166Z,75.29
2022-11-04T07:58:31.152Z,75.17
2022-11-04T08:01:37.368Z,75.05
2022-11-04T08:04:43.490Z,74.88
2022-11-04T08:07:49.542Z,74.90
2022-11-04T08:11:00.631Z,74.82
2022-11-04T08:14:07.732Z,74.88
2022-11-04T08:17:13.819Z,74.94
2022-11-04T08:20:20.238Z,74.85
2022-11-04T08:23:26.434Z,74.74
2022-11-04T08:26:33.068Z,74.82
2022-11-04T08:29:39.770Z,75.04
2022-11-04T08:32:45.744Z,74.82
2022-11-04T08:35:51.986Z,74.56
2022-11-04T08:38:56.964Z,74.43
2022-11-04T08:42:03.331Z,74.50
2022-11-04T08:45:10.729Z,74.42
2022-11-04T08:48:17.654Z,74.37
2022-11-04T08:51:26.614Z,74.37
2022-11-04T08:54:32.826Z,74.42
2022-11-04T08:57:37.533Z,74.16
2022-11-04T09:00:43.760Z,73.98
2022-11-04T09:03:48.712Z,74.06
2022-11-04T09:06:56.415Z,73.93
2022-11-04T09:10:02.805Z,73.74
2022-11-04T09:13:10.898Z,73.63
2022-11-04T09:16:17.835Z,73.52
2022-11-04T09:19:23.918Z,73.35
2022-11-04T09:22:30.140Z,73.24
2022-11-04T09:25:34.670Z,73.25
2022-11-04T09:28:41.645Z,73.08
2022-11-04T09:31:50.022Z,72.82
2022-11-04T09:34:56.244Z,72.64
2022-11-04T09:38:02.298Z,72.56
2022-11-04T09:41:31.962Z,72.49
2022-11-04T09:45:14.935Z,72.27
2022-11-04T09:48:21.768Z,72.21
2022-11-04T09:55:02.327Z,72.03
2022-11-04T09:58:11.082Z,71.92
2022-11-04T10:01:29.135Z,71.90
2022-11-04T10:04:50.973Z,71.74
2022-11-04T10:08:22.002Z,71.44
2022-11-04T10:11:36.270Z,71.12
2022-11-04T10:14:58.018Z,70.98
2022-11-04T10:18:17.264Z,70.90
2022-11-04T10:21:37.469Z,70.75
2022-11-04T10:24:51.189Z,70.80
2022-11-04T10:27:58.172Z,70.52
2022-11-04T10:31:05.317Z,70.45
2022-11-04T10:34:18.905Z,70.33
2022-11-04T10:37:26.647Z,70.16
2022-11-04T10:40:39.007Z,69.96
2022-11-04T10:43:45.697Z,70.11
2022-11-04T10:47:00.676Z,69.76
2022-11-04T10:50:28.875Z,69.46
2022-11-04T10:53:37.839Z,69.39
2022-11-04T10:56:47.058Z,69.30
2022-11-04T10:59:58.781Z,69.17
2022-11-04T11:03:05.868Z,69.19
2022-11-04T11:06:22.340Z,69.12
2022-11-04T11:09:30.773Z,69.11
2022-11-04T11:12:51.788Z,68.71
2022-11-04T11:16:13.453Z,68.53
2022-11-04T11:19:22.389Z,68.37
2022-11-04T11:22:38.863Z,68.08
2022-11-04T11:25:51.900Z,68.05
2022-11-04T11:29:02.586Z,68.08
2022-11-04T11:32:22.268Z,67.98
2022-11-04T11:35:33.943Z,67.72
2022-11-04T11:38:40.810Z,67.77
2022-11-04T11:41:57.254Z,67.56
2022-11-04T11:45:10.663Z,67.39
2022-11-04T11:48:34.038Z,67.04
2022-11-04T11:51:41.669Z,67.08
2022-11-04T11:54:52.705Z,67.02
2022-11-04T12:01:42.648Z,66.61
2022-11-04T12:12:22.387Z,66.16
2022-11-04T12:15:55.506Z,66.24
2022-11-04T12:19:21.764Z,65.79
2022-11-04T12:22:39.274Z,66.06
2022-11-04T12:25:54.010Z,65.83
2022-11-04T12:29:14.420Z,65.62
2022-11-04T12:32:29.534Z,65.77
2022-11-04T12:35:50.723Z,65.66
2022-11-04T12:39:25.455Z,65.44
2022-11-04T12:42:42.168Z,65.53
2022-11-04T12:46:01.287Z,65.25
2022-11-04T12:49:37.064Z,65.12
2022-11-04T12:53:03.760Z,65.18
2022-11-04T12:56:13.205Z,64.80
2022-11-04T12:59:40.673Z,64.89
2022-11-04T13:02:51.322Z,64.77
2022-11-04T13:06:04.631Z,64.81
2022-11-04T13:09:15.210Z,64.79
2022-11-04T13:12:24.856Z,64.79
2022-11-04T13:15:35.219Z,64.68
2022-11-04T13:18:45.845Z,64.59
2022-11-04T13:21:52.889Z,64.51
2022-11-04T13:25:03.683Z,64.46
2022-11-04T13:28:14.572Z,64.59
2022-11-04T13:31:29.384Z,64.35
2022-11-04T13:34:46.140Z,64.48
2022-11-04T13:38:00.446Z,64.39
2022-11-04T13:41:31.222Z,64.39
2022-11-04T13:44:43.657Z,64.50
2022-11-04T13:47:54.402Z,64.51
2022-11-04T13:51:04.083Z,64.42
2022-11-04T13:54:24.928Z,64.35
2022-11-04T13:57:32.942Z,64.49
2022-11-04T14:00:40.202Z,64.07
2022-11-04T14:04:03.119Z,64.11
2022-11-04T14:07:10.838Z,64.12
2022-11-04T14:10:46.742Z,64.28
2022-11-04T14:14:17.482Z,64.23
2022-11-04T14:17:58.466Z,64.33
2022-11-04T14:21:11.535Z,64.29
2022-11-04T14:24:20.334Z,64.27
2022-11-04T14:27:36.118Z,64.28
2022-11-04T14:30:45.889Z,64.19
2022-11-04T14:33:56.213Z,64.08
2022-11-04T14:37:04.157Z,64.16
2022-11-04T14:40:28.829Z,64.17
2022-11-04T14:43:36.929Z,64.10
2022-11-04T14:46:46.790Z,64.13
2022-11-04T14:50:01.962Z,64.36
2022-11-04T14:53:12.604Z,64.42
2022-11-04T14:56:24.320Z,64.43
2022-11-04T14:59:31.554Z,64.48
2022-11-04T15:02:38.633Z,64.47
2022-11-04T15:05:50.860Z,64.40
2022-11-04T15:08:57.890Z,64.43
2022-11-04T15:12:30.364Z,64.38
2022-11-04T15:15:40.327Z,64.59
2022-11-04T15:18:47.134Z,64.61
2022-11-04T15:21:53.279Z,64.82
2022-11-04T15:25:00.358Z,64.79
2022-11-04T15:28:15.014Z,64.69
2022-11-04T15:31:23.737Z,64.86
2022-11-04T15:34:31.824Z,65.01
2022-11-04T15:37:41.699Z,64.93
2022-11-04T15:40:48.772Z,65.08
2022-11-04T15:43:55.699Z,65.04
2022-11-04T15:47:03.820Z,65.20
2022-11-04T15:50:23.657Z,65.15
2022-11-04T15:53:29.885Z,65.31
2022-11-04T15:56:42.249Z,65.37
2022-11-04T15:59:53.821Z,65.25
2022-11-04T16:03:02.041Z,65.49
2022-11-04T16:06:10.018Z,65.42
2022-11-04T16:09:28.199Z,65.51
2022-11-04T16:12:38.334Z,65.60
2022-11-04T16:15:48.186Z,65.57
2022-11-04T16:18:57.443Z,65.50
2022-11-04T16:22:09.275Z,65.54
2022-11-04T16:25:24.801Z,65.77
2022-11-04T16:28:36.394Z,66.05
2022-11-04T16:31:42.701Z,66.34
2022-11-04T16:34:53.966Z,66.26
2022-11-04T16:38:03.613Z,66.42
2022-11-04T16:41:09.883Z,66.44
2022-11-04T16:44:22.829Z,66.44
2022-11-04T16:47:30.124Z,66.50
2022-11-04T16:50:36.207Z,66.40
2022-11-04T16:53:40.514Z,66.45
2022-11-04T16:56:46.826Z,66.51
2022-11-04T16:59:53.009Z,66.63
2022-11-04T17:02:57.529Z,66.83
2022-11-04T17:06:03.649Z,66.80
2022-11-04T17:09:12.030Z,66.65
2022-11-04T17:12:18.080Z,66.63
2022-11-04T17:15:24.520Z,66.75
2022-11-04T17:18:33.829Z,66.88
2022-11-04T17:21:40.506Z,66.80
2022-11-04T17:24:46.576Z,66.86
2022-11-04T17:27:51.135Z,66.99
2022-11-04T17:30:57.254Z,67.16
2022-11-04T17:34:01.831Z,67.20
2022-11-04T17:37:07.903Z,67.15
2022-11-04T17:40:15.099Z,67.31
2022-11-04T17:43:38.629Z,67.36
2022-11-04T17:46:47.866Z,67.27
2022-11-04T17:49:53.990Z,67.40
2022-11-04T17:52:58.554Z,67.40
2022-11-04T17:56:04.837Z,67.40
2022-11-04T17:59:12.528Z,67.29
2022-11-04T18:02:18.966Z,67.54
2022-11-04T18:05:25.226Z,67.51
2022-11-04T18:08:29.684Z,67.55
2022-11-04T18:11:53.355Z,67.70
2022-11-04T18:14:59.433Z,67.83
2022-11-04T18:18:04.045Z,67.82
2022-11-04T18:21:11.582Z,67.82
2022-11-04T18:24:19.430Z,67.91
2022-11-04T18:27:25.707Z,68.14
2022-11-04T18:30:31.906Z,68.14
2022-11-04T18:33:36.481Z,68.25
2022-11-04T18:36:42.921Z,68.24
2022-11-04T18:39:48.995Z,68.44
2022-11-04T18:42:53.561Z,68.71
2022-11-04T18:46:00.031Z,68.67
2022-11-04T18:49:06.158Z,68.70
2022-11-04T18:52:10.652Z,68.87
2022-11-04T18:55:16.966Z,69.06
2022-11-04T18:58:25.277Z,68.97
2022-11-04T19:01:33.900Z,69.18
2022-11-04T19:04:40.266Z,69.32
2022-11-04T19:07:44.733Z,69.54
2022-11-04T19:11:00.692Z,69.68
2022-11-04T19:14:09.831Z,69.73
2022-11-04T19:17:16.217Z,69.91
2022-11-04T19:20:23.809Z,69.99
2022-11-04T19:23:31.402Z,69.83
2022-11-04T19:26:38.389Z,70.09
2022-11-04T19:29:44.507Z,70.29
2022-11-04T19:32:49.082Z,70.27
2022-11-04T19:35:56.324Z,70.50
2022-11-04T19:39:03.353Z,70.76
2022-11-04T19:42:28.256Z,70.74
2022-11-04T19:45:34.707Z,70.84
2022-11-04T19:48:40.809Z,71.00
2022-11-04T19:51:45.729Z,71.12
2022-11-04T19:54:51.845Z,71.31
2022-11-04T19:57:56.530Z,71.37
2022-11-04T20:01:07.847Z,71.56
2022-11-04T20:04:14.909Z,71.59
2022-11-04T20:07:21.057Z,71.55
2022-11-04T20:10:25.555Z,71.85
2022-11-04T20:13:47.835Z,72.10
2022-11-04T20:16:54.119Z,72.22
2022-11-04T20:20:00.200Z,72.22
2022-11-04T20:23:06.222Z,72.26
2022-11-04T20:26:20.245Z,72.37
2022-11-04T20:29:26.916Z,72.50
2022-11-04T20:32:31.453Z,72.55
2022-11-04T20:35:38.238Z,72.93
2022-11-04T20:38:44.533Z,72.79
2022-11-04T20:41:50.666Z,72.95
2022-11-04T20:44:56.811Z,73.06
2022-11-04T20:48:01.353Z,73.38
2022-11-04T20:51:12.228Z,73.46
2022-11-04T20:54:18.438Z,73.60
2022-11-04T20:57:22.878Z,73.63
2022-11-04T21:00:29.797Z,73.71
2022-11-04T21:03:36.183Z,74.01
2022-11-04T21:06:42.943Z,73.96
2022-11-04T21:09:51.237Z,74.13
2022-11-04T21:12:57.233Z,74.19
2022-11-04T21:16:03.842Z,74.40
2022-11-04T21:19:11.981Z,74.50
2022-11-04T21:22:18.030Z,74.54
2022-11-04T21:25:24.222Z,74.52
2022-11-04T21:28:28.693Z,74.65
2022-11-04T21:31:36.095Z,74.75
2022-11-04T21:34:42.192Z,74.84
2022-11-04T21:37:46.640Z,75.11
2022-11-04T21:40:52.982Z,75.14
2022-11-04T21:44:00.310Z,75.05
2022-11-04T21:47:06.513Z,75.32
2022-11-04T21:50:16.765Z,75.47
2022-11-04T21:53:24.054Z,75.52
2022-11-04T21:56:33.273Z,75.58
2022-11-04T21:59:39.370Z,75.63
2022-11-04T22:02:47.491Z,75.73
2022-11-04T22:06:01.973Z,75.79
2022-11-04T22:09:10.186Z,75.84
2022-11-04T22:12:16.209Z,76.09
2022-11-04T22:15:36.848Z,76.00
2022-11-04T22:18:43.832Z,76.15
2022-11-04T22:21:50.262Z,76.39
2022-11-04T22:25:03.428Z,76.31
2022-11-04T22:28:09.688Z,76.43
2022-11-04T22:31:18.008Z,76.55
2022-11-04T22:34:25.072Z,76.57
2022-11-04T22:37:31.274Z,76.48
2022-11-04T22:40:35.886Z,76.57
2022-11-04T22:43:42.798Z,76.72
2022-11-04T22:46:48.907Z,76.96
2022-11-04T22:49:53.377Z,76.95
2022-11-04T22:52:59.400Z,76.95
2022-11-04T22:56:06.934Z,76.93
2022-11-04T22:59:13.215Z,77.07
2022-11-04T23:02:19.508Z,77.16
2022-11-04T23:05:27.844Z,77.18
2022-11-04T23:08:35.348Z,77.15
2022-11-04T23:11:59.029Z,77.26
2022-11-04T23:15:23.112Z,77.44
2022-11-04T23:18:44.843Z,77.33
2022-11-04T23:22:08.721Z,77.44
2022-11-04T23:25:15.395Z,77.63
2022-11-04T23:28:35.281Z,77.51
2022-11-04T23:31:41.702Z,77.64
2022-11-04T23:35:05.530Z,77.83
2022-11-04T23:38:11.920Z,77.83
2022-11-04T23:41:35.881Z,77.83
2022-11-04T23:44:59.657Z,77.96
2022-11-04T23:48:29.782Z,78.12
2022-11-04T23:51:53.560Z,78.06
2022-11-04T23:55:17.647Z,78.12
2022-11-04T23:58:41.521Z,78.20
